Time;durP1;ratioP1;P1;durP2;ratioP2;P2;SDS_P1;SDS_P2;PMS_P1;PMS_P2;Temp;Humidity;BMP_temperature;BMP_pressure;BME280_temperature;BME280_humidity;BME280_pressure;Samples;Min_cycle;Max_cycle;Signal;HPM_P1;HPM_P2
2022/09/11 00:01:02;;;;;;;33.60;17.98;;;;;;;13.70;100.00;101707.97;4875898;29;20120;-94
2022/09/11 00:06:59;;;;;;;40.88;19.15;;;;;;;13.75;100.00;101719.16;4862587;29;20064;-94
2022/09/11 00:11:01;;;;;;;;;;;;;;;;;;;;;
2022/09/11 00:12:54;;;;;;;36.42;19.45;;;;;;;13.79;100.00;101708.63;4871665;29;20048;-93
2022/09/11 00:15:28;;;;;;;37.80;19.23;;;;;;;13.72;100.00;101696.63;4871390;29;20104;-93
2022/09/11 00:18:01;;;;;;;39.50;19.88;;;;;;;13.90;100.00;101726.63;4870684;29;20056;-93
2022/09/11 00:20:32;;;;;;;42.05;19.98;;;;;;;13.89;100.00;101718.84;4871532;29;20032;-93
2022/09/11 00:23:04;;;;;;;35.40;19.02;;;;;;;13.81;100.00;101724.22;4874787;29;20554;-93
2022/09/11 00:26:27;;;;;;;37.08;19.23;;;;;;;13.87;100.00;101731.91;4883713;29;20033;-92
2022/09/11 00:28:56;;;;;;;37.08;18.75;;;;;;;13.74;100.00;101712.22;4885237;29;20128;-93
2022/09/11 00:31:37;;;;;;;39.53;19.83;;;;;;;13.69;100.00;101716.69;4888448;29;20107;-93
2022/09/11 00:34:02;;;;;;;35.40;19.02;;;;;;;13.66;100.00;101719.34;4874791;29;20112;-93
2022/09/11 00:36:35;;;;;;;36.88;19.13;;;;;;;13.59;100.00;101704.75;4878807;29;20124;-94
2022/09/11 00:39:00;;;;;;;37.45;19.83;;;;;;;13.54;100.00;101709.22;4852923;29;20069;-93
2022/09/11 00:42:02;;;;;;;36.63;18.40;;;;;;;13.66;100.00;101724.56;4837822;29;20417;-94
2022/09/11 00:44:30;;;;;;;39.00;19.35;;;;;;;13.65;100.00;101734.13;4838137;29;20460;-93
2022/09/11 00:47:30;;;;;;;38.35;18.98;;;;;;;13.57;100.00;101723.03;4853384;29;20047;-93
2022/09/11 00:50:22;;;;;;;36.08;18.95;;;;;;;13.50;100.00;101716.25;4834519;29;20184;-94
2022/09/11 00:59:57;;;;;;;38.05;19.15;;;;;;;13.39;100.00;101702.56;4853738;29;20081;-94
2022/09/11 01:03:02;;;;;;;43.28;21.02;;;;;;;13.54;100.00;101733.50;4848467;29;20091;-93
2022/09/11 01:06:00;;;;;;;40.40;20.45;;;;;;;13.35;100.00;101714.81;4848578;29;20037;-94
2022/09/11 01:09:01;;;;;;;40.30;19.85;;;;;;;13.37;100.00;101733.03;4839143;29;20060;-94
2022/09/11 01:12:10;;;;;;;36.83;19.33;;;;;;;13.43;100.00;101743.31;4873491;29;20041;-93
2022/09/11 01:15:02;;;;;;;36.80;18.70;;;;;;;13.41;100.00;101745.94;4874753;29;20480;-93
2022/09/11 01:17:53;;;;;;;42.33;20.25;;;;;;;13.39;100.00;101745.09;4875941;29;20041;-93
2022/09/11 01:20:58;;;;;;;43.17;20.25;;;;;;;13.39;100.00;101755.53;4875557;29;20048;-94
2022/09/11 01:24:01;;;;;;;41.92;20.83;;;;;;;13.38;100.00;101750.34;4871055;29;20413;-93
2022/09/11 01:27:07;;;;;;;40.10;20.10;;;;;;;13.36;100.00;101750.41;4879047;29;20770;-93
2022/09/11 01:29:58;;;;;;;43.10;20.27;;;;;;;13.24;100.00;101729.78;4879524;29;20118;-93
2022/09/11 01:32:59;;;;;;;47.13;21.38;;;;;;;13.34;100.00;101754.78;4874773;29;20056;-94
2022/09/11 01:35:32;;;;;;;43.15;21.33;;;;;;;13.35;100.00;101763.44;4872461;29;20051;-95
2022/09/11 01:38:12;;;;;;;43.72;21.08;;;;;;;13.34;100.00;101762.59;4862722;29;20368;-93
2022/09/11 01:41:06;;;;;;;44.33;20.98;;;;;;;13.31;100.00;101765.22;4877973;29;20040;-94
2022/09/11 01:43:52;;;;;;;;;;;;;;;13.32;100.00;101761.75;4876010;29;20033;-95
2022/09/11 01:46:57;;;;;;;41.30;19.48;;;;;;;13.14;100.00;101741.28;4876406;29;19915;-95
2022/09/11 01:49:44;;;;;;;42.10;20.67;;;;;;;13.18;100.00;101755.09;4878735;29;20134;-94
2022/09/11 01:52:32;;;;;;;42.42;21.40;;;;;;;13.19;100.00;101762.88;4877945;29;20036;-93
2022/09/11 01:55:28;;;;;;;44.97;21.13;;;;;;;13.06;100.00;101746.63;4879419;29;20037;-93
2022/09/11 01:58:14;;;;;;;44.83;20.85;;;;;;;13.05;100.00;101749.25;4884428;29;20037;-94
2022/09/11 02:00:58;;;;;;;45.92;21.77;;;;;;;13.01;100.00;101751.06;4872479;29;20534;-94
2022/09/11 02:03:35;;;;;;;42.95;21.10;;;;;;;13.01;100.00;101755.41;4883663;29;20048;-93
2022/09/11 02:06:41;;;;;;;44.42;21.48;;;;;;;13.10;100.00;101768.22;4858277;29;20033;-93
2022/09/11 02:09:24;;;;;;;44.70;21.60;;;;;;;13.00;100.00;101751.94;4876242;29;20115;-94
2022/09/11 02:12:08;;;;;;;46.53;22.58;;;;;;;13.03;100.00;101764.88;4879435;29;20037;-93
2022/09/11 02:14:54;;;;;;;44.50;22.10;;;;;;;13.04;100.00;101761.41;4866543;29;20383;-94
2022/09/11 02:17:35;;;;;;;46.20;21.88;;;;;;;13.07;100.00;101774.38;4874813;29;20040;-93
2022/09/11 02:20:02;;;;;;;45.30;23.02;;;;;;;12.92;100.00;101748.63;4891108;29;20069;-93
2022/09/11 02:22:43;;;;;;;47.97;21.88;;;;;;;12.90;100.00;101737.38;4882355;29;20049;-93
2022/09/11 02:25:38;;;;;;;48.85;22.98;;;;;;;13.04;100.00;101774.41;4883775;29;20055;-93
2022/09/11 02:28:04;;;;;;;50.45;24.23;;;;;;;12.88;100.00;101746.13;4875258;29;20048;-92
2022/09/11 02:30:58;;;;;;;49.78;23.38;;;;;;;12.95;100.00;101768.53;4861985;29;20041;-93
2022/09/11 02:33:36;;;;;;;49.95;23.15;;;;;;;12.83;100.00;101751.38;4876339;29;20491;-93
2022/09/11 02:36:34;;;;;;;50.38;23.35;;;;;;;13.00;100.00;101792.72;4861960;29;20057;-95
2022/09/11 02:39:17;;;;;;;49.03;22.48;;;;;;;12.95;100.00;101790.22;4875028;29;20052;-94
2022/09/11 02:42:29;;;;;;;51.97;23.30;;;;;;;12.94;100.00;101790.25;4877052;29;20093;-93
2022/09/11 02:45:34;;;;;;;54.63;24.33;;;;;;;12.92;100.00;101786.78;4868533;29;20033;-93
2022/09/11 02:48:24;;;;;;;49.87;23.40;;;;;;;12.88;100.00;101791.22;4871094;29;20064;-93
2022/09/11 02:51:18;;;;;;;45.03;21.45;;;;;;;12.85;100.00;101793.00;4883077;29;20525;-93
2022/09/11 02:57:42;;;;;;;41.53;19.70;;;;;;;12.76;100.00;101795.78;4873972;29;20072;-94
2022/09/11 03:00:49;;;;;;;43.83;20.58;;;;;;;12.60;100.00;101771.75;4852318;29;20484;-94
2022/09/11 03:03:44;;;;;;;42.53;20.15;;;;;;;12.62;100.00;101778.63;4870976;29;20044;-94
2022/09/11 03:06:42;;;;;;;39.60;20.60;;;;;;;12.57;100.00;101761.41;4882622;29;20032;-93
2022/09/11 03:10:06;;;;;;;43.38;20.85;;;;;;;12.62;100.00;101790.81;4887847;29;20088;-93
2022/09/11 03:12:53;;;;;;;46.72;21.85;;;;;;;12.63;100.00;101808.97;4843032;29;20040;-94
2022/09/11 03:15:33;;;;;;;43.13;20.48;;;;;;;12.47;100.00;101783.25;4857613;29;20037;-93
2022/09/11 03:18:06;;;;;;;43.17;20.48;;;;;;;12.42;100.00;101777.28;4877611;29;20072;-93
2022/09/11 03:21:03;;;;;;;45.07;21.33;;;;;;;12.43;100.00;101784.19;4875574;29;20507;-94
2022/09/11 03:24:00;;;;;;;45.38;21.00;;;;;;;12.53;100.00;101802.22;4880164;29;20541;-95
2022/09/11 03:26:34;;;;;;;44.58;21.88;;;;;;;12.43;100.00;101784.19;4859295;29;20045;-95
2022/09/11 03:29:03;;;;;;;;;;;;;;;12.54;100.00;101806.53;4883290;29;20041;-92
2022/09/11 03:32:03;;;;;;;49.67;21.55;;;;;;;12.51;100.00;101809.19;4869867;29;19924;-93
2022/09/11 03:34:36;;;;;;;50.67;22.88;;;;;;;12.49;100.00;101810.06;4864743;29;20040;-93
2022/09/11 03:37:01;;;;;;;51.47;22.75;;;;;;;12.37;100.00;101789.47;4875086;29;20044;-93
2022/09/11 03:43:29;;;;;;;45.47;21.67;;;;;;;12.30;100.00;101788.72;4871191;29;20073;-93
2022/09/11 03:46:02;;;;;;;48.38;23.10;;;;;;;12.25;100.00;101780.13;4872922;29;20040;-93
2022/09/11 03:49:00;;;;;;;49.78;23.30;;;;;;;12.23;100.00;101787.94;4871658;29;20109;-93
2022/09/11 03:52:01;;;;;;;54.55;23.30;;;;;;;12.23;100.00;101792.28;4870517;29;20047;-93
2022/09/11 03:55:01;;;;;;;50.53;23.23;;;;;;;12.23;100.00;101792.28;4854675;29;20055;-93
2022/09/11 03:58:02;;;;;;;52.85;24.15;;;;;;;12.18;100.00;101789.78;4848636;29;20131;-93
2022/09/11 04:01:03;;;;;;;52.67;23.42;;;;;;;12.27;100.00;101813.03;4883307;29;20040;-93
2022/09/11 04:03:37;;;;;;;52.58;23.95;;;;;;;12.29;100.00;101818.19;4859006;29;20029;-93
2022/09/11 04:06:06;;;;;;;53.60;24.17;;;;;;;12.26;100.00;101813.91;4875575;29;20072;-93
2022/09/11 04:08:40;;;;;;;52.10;23.55;;;;;;;12.19;100.00;101801.03;4882423;29;20033;-94
2022/09/11 04:11:37;;;;;;;;;;;;;;;;;;;;;
2022/09/11 04:14:18;;;;;;;48.90;22.83;;;;;;;12.06;100.00;101800.34;4872768;29;20068;-92
2022/09/11 04:17:02;;;;;;;53.97;23.30;;;;;;;12.13;100.00;101814.13;4858591;29;20038;-94
2022/09/11 04:20:01;;;;;;;43.22;20.73;;;;;;;12.06;100.00;101808.16;4850849;29;20502;-93
2022/09/11 04:22:47;;;;;;;46.80;21.08;;;;;;;12.12;100.00;101807.19;4868212;29;20032;-94
2022/09/11 04:26:14;;;;;;;44.67;20.90;;;;;;;12.05;100.00;101789.97;4856678;29;20148;-93
2022/09/11 04:32:33;;;;;;;41.42;19.70;;;;;;;12.15;100.00;101809.72;4799013;29;20134;-94
2022/09/11 04:35:01;;;;;;;46.28;20.35;;;;;;;12.15;100.00;101808.00;4801683;29;20442;-92
2022/09/11 04:37:30;;;;;;;44.58;20.30;;;;;;;12.09;100.00;101799.44;4800463;29;20043;-93
2022/09/11 04:40:01;;;;;;;48.70;20.90;;;;;;;12.23;100.00;101810.50;4803120;29;20101;-93
2022/09/11 04:42:55;;;;;;;48.25;20.15;;;;;;;12.21;100.00;101804.47;4816596;29;20038;-93
2022/09/11 04:46:02;;;;;;;49.80;19.92;;;;;;;12.25;100.00;101803.53;4870467;29;20523;-94
2022/09/11 04:48:51;;;;;;;43.35;19.17;;;;;;;12.22;100.00;101801.81;4873650;29;20037;-93
2022/09/11 04:52:08;;;;;;;45.75;19.98;;;;;;;12.37;100.00;101833.69;4869312;29;20036;-93
2022/09/11 04:55:01;;;;;;;45.60;19.17;;;;;;;12.36;100.00;101826.75;4825683;29;20735;-93
2022/09/11 04:57:42;;;;;;;49.00;20.67;;;;;;;12.27;100.00;101809.56;4875288;29;20606;-92
2022/09/11 05:01:01;;;;;;;48.67;19.27;;;;;;;12.46;100.00;101831.81;4858856;29;20041;-93
2022/09/11 05:04:11;;;;;;;49.67;20.10;;;;;;;12.28;100.00;101800.91;4863883;29;20029;-93
2022/09/11 05:07:03;;;;;;;45.92;19.98;;;;;;;12.37;100.00;101807.69;4793550;29;20046;-93
2022/09/11 05:10:01;;;;;;;58.60;21.38;;;;;;;12.38;100.00;101818.06;4792256;29;20409;-92
2022/09/11 05:12:55;;;;;;;50.70;20.13;;;;;;;12.51;100.00;101829.13;4804433;29;20501;-95
2022/09/11 05:16:09;;;;;;;58.78;20.77;;;;;;;12.40;100.00;101820.66;4799484;29;20043;-93
2022/09/11 05:19:00;;;;;;;71.18;21.23;;;;;;;12.48;100.00;101835.25;4770898;29;20039;-93
2022/09/11 05:22:03;;;;;;;56.72;20.15;;;;;;;12.32;100.00;101818.16;4760383;30;20067;-93
2022/09/11 05:25:00;;;;;;;48.40;19.77;;;;;;;12.51;100.00;101857.72;4767584;29;20055;-93
2022/09/11 05:27:41;;;;;;;56.17;19.30;;;;;;;12.35;100.00;101832.88;4810880;29;20490;-93
2022/09/11 05:30:40;;;;;;;56.97;20.02;;;;;;;12.53;100.00;101863.78;4848466;29;20041;-93
2022/09/11 05:33:14;;;;;;;51.03;20.00;;;;;;;12.48;100.00;101852.59;4871360;29;20518;-91
2022/09/11 05:36:01;;;;;;;62.28;21.50;;;;;;;12.47;100.00;101843.06;4875547;29;20053;-94
2022/09/11 05:39:02;;;;;;;78.93;21.65;;;;;;;12.46;100.00;101844.81;4869263;29;20041;-93
2022/09/11 05:41:57;;;;;;;62.42;20.90;;;;;;;12.60;100.00;101875.81;4786248;29;20073;-93
2022/09/11 05:44:26;;;;;;;50.03;19.73;;;;;;;12.49;100.00;101856.88;4799215;29;20043;-91
2022/09/11 05:47:04;;;;;;;52.25;19.80;;;;;;;12.53;100.00;101869.84;4799760;29;20034;-94
2022/09/11 05:50:02;;;;;;;50.75;20.08;;;;;;;12.62;100.00;101874.06;4801942;29;20047;-94
2022/09/11 05:52:32;;;;;;;48.10;19.20;;;;;;;12.58;100.00;101873.22;4871509;29;20029;-93
2022/09/11 05:55:00;;;;;;;38.30;19.92;;;;;;;12.66;100.00;101880.91;4871367;29;20542;-93
2022/09/11 06:01:03;;;;;;;38.17;19.13;;;;;;;12.70;100.00;101885.16;4877910;29;20116;-93
2022/09/11 06:03:58;;;;;;;48.63;20.25;;;;;;;12.74;100.00;101880.78;4865823;29;20081;-94
2022/09/11 06:06:50;;;;;;;33.92;19.05;;;;;;;12.88;100.00;101890.09;4829151;29;20037;-93
2022/09/11 06:09:43;;;;;;;45.50;19.67;;;;;;;13.00;100.00;101902.91;4864359;29;20041;-93
2022/09/11 06:12:38;;;;;;;54.65;20.20;;;;;;;13.04;100.00;101920.16;4869489;29;20502;-94
2022/09/11 06:18:06;;;;;;;44.30;19.23;;;;;;;12.97;100.00;101902.06;4817618;29;20053;-92
2022/09/11 06:21:14;;;;;;;54.72;20.08;;;;;;;13.18;100.00;101926.91;4819609;29;20034;-95
2022/09/11 06:24:01;;;;;;;43.97;19.92;;;;;;;13.17;100.00;101910.44;4860633;29;20036;-95
2022/09/11 06:27:03;;;;;;;38.60;20.10;;;;;;;13.29;100.00;101925.88;4849023;29;20056;-95
2022/09/11 06:34:03;;;;;;;46.55;19.45;;;;;;;13.45;100.00;101918.63;4802290;29;20031;-94
2022/09/11 06:39:48;;;;;;;44.88;19.30;;;;;;;13.49;100.00;101920.31;4763185;30;20540;-94
2022/09/11 06:42:36;;;;;;;47.75;19.15;;;;;;;13.42;100.00;101911.75;4757528;29;20754;-95
2022/09/11 06:45:01;;;;;;;53.50;19.75;;;;;;;13.48;100.00;101920.31;4795411;29;20536;-93
2022/09/11 06:47:33;;;;;;;34.47;18.80;;;;;;;13.48;100.00;101917.72;4817523;29;20693;-92
2022/09/11 06:50:01;;;;;;;53.55;19.30;;;;;;;13.54;100.00;101926.28;4823544;29;20129;-93
2022/09/11 06:55:50;;;;;;;46.72;18.85;;;;;;;13.60;100.00;101923.56;4858360;29;20472;-92
2022/09/11 06:58:15;;;;;;;40.63;18.30;;;;;;;13.66;100.00;101925.19;4859547;29;20021;-92
2022/09/11 07:01:02;;;;;;;48.15;18.90;;;;;;;13.72;100.00;101930.28;4840378;29;20030;-93
2022/09/11 07:03:34;;;;;;;42.40;19.45;;;;;;;13.73;100.00;101934.59;4855956;29;20518;-93
2022/09/11 07:06:02;;;;;;;33.47;18.20;;;;;;;13.94;100.00;101951.56;4858666;29;20022;-92
2022/09/11 07:09:02;;;;;;;;;;;;;;;;;;;;;
2022/09/11 07:11:52;;;;;;;;;;;;;;;;;;;;;
2022/09/11 07:14:46;;;;;;;;;;;;;;;;;;;;;
2022/09/11 07:17:26;;;;;;;45.05;19.73;;;;;;;14.01;100.00;101921.88;4848917;29;20521;-93
2022/09/11 07:20:00;;;;;;;49.58;20.38;;;;;;;14.19;100.00;101945.00;4857643;29;20033;-93
2022/09/11 07:22:44;;;;;;;64.75;22.77;;;;;;;14.17;100.00;101929.38;4867530;29;20108;-93
2022/09/11 07:25:16;;;;;;;63.45;21.85;;;;;;;14.25;100.00;101950.06;4881602;29;20109;-93
2022/09/11 07:28:00;;;;;;;51.22;22.70;;;;;;;14.30;100.00;101937.78;4877965;29;20553;-94
2022/09/11 07:30:32;;;;;;;53.95;23.85;;;;;;;14.33;100.00;101921.22;4877916;29;20065;-93
2022/09/11 07:33:03;;;;;;;48.78;21.50;;;;;;;14.45;100.00;101934.00;4877684;29;20498;-93
2022/09/11 07:35:41;;;;;;;62.85;22.55;;;;;;;14.47;100.00;101945.25;4876322;29;20117;-93
2022/09/11 07:38:07;;;;;;;62.45;22.92;;;;;;;14.64;100.00;101945.75;4881717;29;20494;-93
2022/09/11 07:40:35;;;;;;;59.78;23.05;;;;;;;14.63;100.00;101939.66;4888867;29;20089;-93
2022/09/11 07:43:02;;;;;;;54.70;23.35;;;;;;;14.61;100.00;101922.31;4879275;29;20044;-93
2022/09/11 07:45:30;;;;;;;52.22;23.20;;;;;;;14.75;100.00;101925.47;4860860;29;20068;-93
2022/09/11 07:48:02;;;;;;;57.35;24.40;;;;;;;14.84;100.00;101921.78;4875859;29;20036;-93
2022/09/11 07:50:33;;;;;;;55.38;24.70;;;;;;;15.00;100.00;101934.44;4876073;29;20522;-92
2022/09/11 07:53:01;;;;;;;77.38;26.00;;;;;;;14.98;100.00;101919.69;4880807;29;20467;-93
2022/09/11 07:55:26;;;;;;;64.88;25.65;;;;;;;15.03;100.00;101934.34;4884648;29;20022;-92
2022/09/11 07:57:52;;;;;;;60.67;24.27;;;;;;;15.07;100.00;101940.38;4875914;29;20452;-93
2022/09/11 08:00:20;;;;;;;73.22;25.10;;;;;;;15.16;100.00;101953.19;4875952;29;20021;-94
2022/09/11 08:02:55;;;;;;;56.05;24.83;;;;;;;15.19;100.00;101953.13;4872811;29;20399;-93
2022/09/11 08:05:20;;;;;;;54.53;24.30;;;;;;;15.22;100.00;101949.56;4860275;29;20108;-92
2022/09/11 08:07:48;;;;;;;52.80;24.17;;;;;;;15.31;100.00;101952.81;4875924;29;20128;-93
2022/09/11 08:10:16;;;;;;;54.30;24.95;;;;;;;15.31;100.00;101938.88;4860409;29;20021;-93
2022/09/11 08:12:42;;;;;;;56.03;25.10;;;;;;;15.38;100.00;101940.44;4875785;29;20487;-93
2022/09/11 08:15:10;;;;;;;59.15;25.40;;;;;;;15.58;100.00;101976.53;4884884;29;20076;-92
2022/09/11 08:17:36;;;;;;;52.30;25.00;;;;;;;15.57;100.00;101965.22;4879219;29;20029;-93
2022/09/11 08:20:02;;;;;;;52.90;25.35;;;;;;;15.66;100.00;101965.00;4876077;29;20029;-93
2022/09/11 08:22:27;;;;;;;51.80;25.55;;;;;;;15.84;100.00;101981.91;4879169;29;20334;-93
2022/09/11 08:24:52;;;;;;;57.05;25.80;;;;;;;15.90;100.00;101986.16;4887319;29;20057;-94
2022/09/11 08:27:18;;;;;;;56.17;26.08;;;;;;;15.84;100.00;101970.59;4870501;29;20018;-94
2022/09/11 08:29:44;;;;;;;51.35;25.67;;;;;;;15.86;100.00;101967.06;4887215;29;20124;-93
2022/09/11 08:32:12;;;;;;;55.83;25.95;;;;;;;15.89;100.00;101966.13;4875794;29;20021;-93
2022/09/11 08:34:41;;;;;;;56.03;27.10;;;;;;;16.00;100.00;101978.00;4875322;29;20419;-94
2022/09/11 08:37:06;;;;;;;52.40;25.73;;;;;;;15.97;100.00;101967.59;4875430;29;20065;-93
2022/09/11 08:39:34;;;;;;;54.90;25.27;;;;;;;16.00;100.00;101971.91;4881912;29;20064;-93
2022/09/11 08:42:16;;;;;;;53.85;26.52;;;;;;;16.10;100.00;101989.91;4882335;29;20084;-95
2022/09/11 08:44:55;;;;;;;53.88;26.33;;;;;;;16.19;100.00;101987.03;4883269;29;20072;-93
2022/09/11 08:47:30;;;;;;;53.63;26.25;;;;;;;16.20;100.00;101977.44;4881493;29;20275;-93
2022/09/11 08:50:02;;;;;;;56.47;28.17;;;;;;;16.50;100.00;102001.84;4884527;29;20060;-94
2022/09/11 08:52:32;;;;;;;53.13;25.80;;;;;;;16.56;100.00;101980.72;4859689;29;20029;-94
2022/09/11 08:55:01;;;;;;;54.05;26.45;;;;;;;16.90;100.00;101998.91;4875378;29;20085;-94
2022/09/11 08:57:45;;;;;;;50.90;25.92;;;;;;;17.11;100.00;102006.09;4864694;29;20039;-93
2022/09/11 09:00:20;;;;;;;49.55;26.17;;;;;;;17.18;100.00;102004.97;4882232;29;20108;-94
2022/09/11 09:03:22;;;;;;;50.75;26.52;;;;;;;17.20;100.00;102008.38;4887179;29;20118;-93
2022/09/11 09:05:58;;;;;;;46.97;25.25;;;;;;;17.19;100.00;102009.31;4851755;29;20073;-94
2022/09/11 09:08:43;;;;;;;49.72;26.10;;;;;;;17.20;100.00;102011.00;4869861;29;20037;-93
2022/09/11 09:11:36;;;;;;;48.67;26.70;;;;;;;17.10;100.00;101980.78;4874878;29;20165;-94
2022/09/11 09:14:19;;;;;;;48.17;26.17;;;;;;;17.46;100.00;102004.94;4888068;29;20029;-95
2022/09/11 09:17:03;;;;;;;52.50;26.30;;;;;;;17.62;100.00;102008.75;4875173;29;20476;-93
2022/09/11 09:19:38;;;;;;;44.50;24.37;;;;;;;17.84;100.00;102006.25;4874820;29;20033;-93
2022/09/11 09:22:38;;;;;;;47.53;24.90;;;;;;;17.80;100.00;101988.91;4879523;29;20053;-93
2022/09/11 09:25:13;;;;;;;47.13;24.63;;;;;;;17.77;100.00;102023.09;4878592;29;20064;-93
2022/09/11 09:28:23;;;;;;;44.65;24.88;;;;;;;17.60;100.00;102017.56;4884197;29;20029;-93
2022/09/11 09:31:04;;;;;;;43.40;24.42;;;;;;;17.60;100.00;102017.56;4867285;29;20079;-92
2022/09/11 09:33:34;;;;;;;41.63;24.35;;;;;;;17.50;100.00;102003.91;4886082;29;20045;-93
2022/09/11 09:36:48;;;;;;;45.90;24.17;;;;;;;17.79;100.00;102004.72;4874921;29;20029;-94
2022/09/11 09:39:21;;;;;;;40.30;23.25;;;;;;;17.94;100.00;102001.53;4857568;29;20052;-93
2022/09/11 09:42:27;;;;;;;43.45;23.65;;;;;;;18.19;100.00;102007.59;4878493;29;20117;-93
2022/09/11 09:45:36;;;;;;;39.42;22.75;;;;;;;18.51;100.00;102024.78;4862927;29;20131;-93
2022/09/11 09:48:03;;;;;;;36.05;22.45;;;;;;;18.76;98.56;102022.13;4884688;29;20061;-92
2022/09/11 09:50:32;;;;;;;37.60;23.13;;;;;;;18.80;96.59;101994.81;4878778;29;20029;-93
2022/09/11 09:53:09;;;;;;;38.15;22.30;;;;;;;19.01;96.36;102003.59;4878762;29;20446;-94
2022/09/11 09:55:51;;;;;;;36.33;21.92;;;;;;;19.15;97.68;102009.16;4891116;29;20029;-93
2022/09/11 09:58:36;;;;;;;36.35;22.35;;;;;;;19.17;94.92;102017.84;4886893;29;20542;-93
2022/09/11 10:01:02;;;;;;;37.28;22.70;;;;;;;19.06;93.65;102009.53;4856621;29;20093;-93
2022/09/11 10:03:33;;;;;;;36.63;23.05;;;;;;;18.89;94.21;102012.84;4891331;29;20025;-93
2022/09/11 10:06:04;;;;;;;34.90;22.60;;;;;;;18.88;94.71;102006.72;4891082;29;20280;-93
2022/09/11 10:08:45;;;;;;;34.38;22.17;;;;;;;18.97;95.83;102017.78;4850880;29;20029;-94
2022/09/11 10:11:26;;;;;;;39.42;23.38;;;;;;;18.90;95.84;101994.34;4862495;29;20025;-92
2022/09/11 10:13:56;;;;;;;37.22;23.70;;;;;;;18.93;92.76;101998.66;4877944;29;20112;-93
2022/09/11 10:16:26;;;;;;;37.58;22.80;;;;;;;18.96;94.53;102002.94;4891921;29;20021;-92
2022/09/11 10:18:54;;;;;;;35.65;23.08;;;;;;;18.97;90.88;102023.88;4877961;29;20040;-92
2022/09/11 10:21:28;;;;;;;36.45;23.58;;;;;;;18.78;92.21;102008.00;4881637;29;20056;-92
2022/09/11 10:23:59;;;;;;;33.90;22.42;;;;;;;18.83;92.10;102005.22;4870530;29;20483;-92
2022/09/11 10:26:49;;;;;;;34.25;22.17;;;;;;;19.09;94.72;102017.28;4882732;29;20024;-92
2022/09/11 10:29:30;;;;;;;32.60;20.88;;;;;;;19.23;95.38;102012.34;4860385;29;20201;-93
2022/09/11 10:32:01;;;;;;;32.90;20.63;;;;;;;19.45;93.20;101999.16;4878095;29;20037;-93
2022/09/11 10:34:37;;;;;;;29.98;20.27;;;;;;;19.70;93.81;101992.81;4890226;29;20031;-92
2022/09/11 10:37:31;;;;;;;30.63;21.50;;;;;;;20.03;91.13;102014.16;4879097;29;20506;-92
2022/09/11 10:40:20;;;;;;;29.38;20.33;;;;;;;19.94;88.89;102022.44;4873633;29;20063;-93
2022/09/11 10:42:49;;;;;;;31.67;20.90;;;;;;;19.64;88.50;101990.44;4883549;29;20025;-93
2022/09/11 10:45:23;;;;;;;30.75;20.33;;;;;;;19.60;88.92;102017.78;4885973;29;20028;-93
2022/09/11 10:47:49;;;;;;;30.95;20.38;;;;;;;19.66;91.45;102004.38;4861178;29;20021;-93
2022/09/11 10:50:22;;;;;;;34.03;21.20;;;;;;;19.76;89.61;102007.47;4887901;29;20080;-93
2022/09/11 10:52:57;;;;;;;32.72;21.13;;;;;;;19.93;92.01;102018.09;4867800;29;20041;-93
2022/09/11 10:55:53;;;;;;;32.00;21.45;;;;;;;20.06;90.55;102002.66;4884265;29;20491;-93
2022/09/11 10:58:30;;;;;;;35.67;22.67;;;;;;;20.06;84.61;101992.94;4877098;29;20077;-92
2022/09/11 11:00:58;;;;;;;32.90;22.60;;;;;;;20.30;84.83;102017.31;4890032;29;20033;-93
2022/09/11 11:03:32;;;;;;;32.95;21.85;;;;;;;20.46;87.93;102017.53;4877181;29;20487;-94
2022/09/11 11:06:33;;;;;;;28.23;20.60;;;;;;;20.64;87.44;102015.81;4861853;29;20104;-95
2022/09/11 11:09:23;;;;;;;30.45;21.40;;;;;;;20.63;85.98;102008.81;4861209;29;20459;-93
2022/09/11 11:12:10;;;;;;;30.73;21.38;;;;;;;20.66;83.66;102013.97;4877024;29;20071;-92
2022/09/11 11:15:06;;;;;;;29.63;20.67;;;;;;;20.61;84.98;101998.34;4874216;29;20060;-95
2022/09/11 11:17:57;;;;;;;28.67;19.77;;;;;;;20.64;82.11;102011.38;4891041;29;20197;-93
2022/09/11 11:20:54;;;;;;;28.52;20.23;;;;;;;20.62;82.03;102015.88;4889269;29;20059;-93
2022/09/11 11:23:48;;;;;;;28.50;19.80;;;;;;;20.65;84.29;102014.88;4876885;29;20474;-93
2022/09/11 11:26:48;;;;;;;31.00;21.58;;;;;;;20.61;82.81;101995.72;4861364;29;20575;-93
2022/09/11 11:29:38;;;;;;;28.25;20.10;;;;;;;20.82;82.43;102026.31;4882711;29;20024;-93
2022/09/11 11:32:20;;;;;;;27.23;19.58;;;;;;;20.82;81.70;102015.78;4891362;29;20034;-93
2022/09/11 11:35:28;;;;;;;28.88;20.52;;;;;;;20.89;84.26;102011.91;4876020;29;20484;-93
2022/09/11 11:38:23;;;;;;;31.88;21.25;;;;;;;20.84;83.36;101997.25;4860962;29;20029;-93
2022/09/11 11:40:55;;;;;;;30.90;21.30;;;;;;;20.80;79.21;102001.84;4876403;29;20491;-93
2022/09/11 11:43:30;;;;;;;30.88;19.85;;;;;;;20.66;81.37;101988.47;4889280;29;20032;-93
2022/09/11 11:46:01;;;;;;;31.88;22.23;;;;;;;20.52;78.80;101988.25;4876443;29;20123;-91
2022/09/11 11:48:35;;;;;;;32.42;21.83;;;;;;;20.49;78.77;102005.03;4877385;29;20025;-93
2022/09/11 11:51:11;;;;;;;30.52;21.17;;;;;;;20.31;80.41;101989.22;4877561;29;20305;-92
2022/09/11 11:53:47;;;;;;;30.88;21.02;;;;;;;20.16;81.96;102003.06;4863428;29;20240;-93
2022/09/11 11:56:27;;;;;;;31.48;20.23;;;;;;;20.13;81.53;102006.69;4876985;29;20040;-92
2022/09/11 11:59:12;;;;;;;27.92;20.38;;;;;;;19.91;82.63;101987.53;4860351;29;20032;-93
2022/09/11 12:01:58;;;;;;;29.10;19.73;;;;;;;19.87;83.97;101999.94;4888398;29;20035;-92
2022/09/11 12:04:32;;;;;;;31.25;20.85;;;;;;;19.76;81.88;102004.84;4867693;29;20025;-93
2022/09/11 12:06:58;;;;;;;28.25;19.05;;;;;;;19.59;83.87;101976.63;4871912;29;20029;-92
2022/09/11 12:09:26;;;;;;;28.98;20.42;;;;;;;19.69;81.22;101996.34;4877143;29;20476;-93
2022/09/11 12:11:55;;;;;;;27.75;19.83;;;;;;;19.58;83.16;101979.34;4888082;29;20029;-92
2022/09/11 12:14:27;;;;;;;29.10;20.08;;;;;;;19.53;82.66;101973.41;4875405;29;20037;-92
2022/09/11 12:16:55;;;;;;;29.15;19.98;;;;;;;19.54;83.57;101977.75;4877032;29;20025;-92
2022/09/11 12:19:24;;;;;;;27.33;18.38;;;;;;;19.66;82.53;101999.09;4875938;29;20025;-92
2022/09/11 12:21:52;;;;;;;30.63;18.63;;;;;;;19.67;83.87;101999.97;4875178;29;20028;-92
2022/09/11 12:24:42;;;;;;;28.50;19.00;;;;;;;19.65;83.02;101994.75;4864028;29;20057;-92
2022/09/11 12:27:34;;;;;;;26.50;18.23;;;;;;;19.67;85.15;101978.91;4856472;29;20029;-93
2022/09/11 12:30:22;;;;;;;28.77;19.15;;;;;;;19.88;81.79;101993.78;4859678;29;20124;-92
2022/09/11 12:32:48;;;;;;;29.52;20.48;;;;;;;19.95;79.62;101983.81;4859878;29;20081;-93
2022/09/11 12:35:40;;;;;;;30.27;19.63;;;;;;;20.17;81.57;101989.00;4875405;29;20040;-93
2022/09/11 12:38:05;;;;;;;29.88;19.58;;;;;;;20.28;77.79;101994.59;4876146;29;20345;-92
2022/09/11 12:40:33;;;;;;;26.23;17.87;;;;;;;20.41;78.78;101985.25;4876856;29;20311;-92
2022/09/11 12:43:34;;;;;;;25.13;18.40;;;;;;;20.45;82.35;101974.53;4874642;29;20277;-94
2022/09/11 12:46:04;;;;;;;27.65;19.77;;;;;;;20.46;77.93;101959.56;4813011;29;20489;-93
2022/09/11 12:48:39;;;;;;;25.42;17.92;;;;;;;20.61;79.04;101977.25;4850220;29;20191;-92
2022/09/11 12:51:17;;;;;;;23.13;17.67;;;;;;;20.52;79.20;101966.31;4874872;29;20041;-92
2022/09/11 12:53:46;;;;;;;24.67;18.40;;;;;;;20.52;75.24;101966.31;4875617;29;20029;-92
2022/09/11 12:56:18;;;;;;;24.75;17.13;;;;;;;20.50;79.10;101951.44;4874842;29;20081;-93
2022/09/11 12:58:46;;;;;;;29.25;19.30;;;;;;;20.48;74.99;101961.19;4884091;29;20037;-92
2022/09/11 13:01:40;;;;;;;26.90;19.92;;;;;;;20.42;78.40;101945.66;4882439;29;20036;-93